sensor_id;sensor_type;location;lat;lon;timestamp;pressure;altitude;pressure_sealevel;temperature;humidity
38227;BME280;24026;49.446;8.576;2023-05-14T00:02:14;100592.00;;;17.92;56.36
38227;BME280;24026;49.446;8.576;2023-05-14T00:04:35;100592.56;;;17.89;56.53
38227;BME280;24026;49.446;8.576;2023-05-14T00:06:55;100597.16;;;17.88;56.66
38227;BME280;24026;49.446;8.576;2023-05-14T00:09:15;100594.47;;;17.88;56.45
38227;BME280;24026;49.446;8.576;2023-05-14T00:11:36;100585.06;;;17.86;56.37
38227;BME280;24026;49.446;8.576;2023-05-14T00:13:56;100588.56;;;17.86;56.43
38227;BME280;24026;49.446;8.576;2023-05-14T00:16:17;100580.75;;;17.90;56.54
38227;BME280;24026;49.446;8.576;2023-05-14T00:18:37;100579.97;;;17.84;56.68
38227;BME280;24026;49.446;8.576;2023-05-14T00:20:58;100574.59;;;17.84;56.65
38227;BME280;24026;49.446;8.576;2023-05-14T00:23:18;100576.19;;;17.85;56.41
38227;BME280;24026;49.446;8.576;2023-05-14T00:25:38;100588.03;;;17.84;56.61
38227;BME280;24026;49.446;8.576;2023-05-14T00:27:59;100580.78;;;17.85;56.47
38227;BME280;24026;49.446;8.576;2023-05-14T00:30:19;100584.31;;;17.80;56.42
38227;BME280;24026;49.446;8.576;2023-05-14T00:32:40;100585.66;;;17.83;56.67
38227;BME280;24026;49.446;8.576;2023-05-14T00:35:00;100582.13;;;17.82;56.64
38227;BME280;24026;49.446;8.576;2023-05-14T00:37:23;100582.97;;;17.83;56.48
38227;BME280;24026;49.446;8.576;2023-05-14T00:39:43;100585.66;;;17.83;56.25
38227;BME280;24026;49.446;8.576;2023-05-14T00:42:04;100578.94;;;17.80;56.54
38227;BME280;24026;49.446;8.576;2023-05-14T00:44:24;100582.41;;;17.81;56.50
38227;BME280;24026;49.446;8.576;2023-05-14T00:46:45;100578.19;;;17.74;56.72
38227;BME280;24026;49.446;8.576;2023-05-14T00:49:05;100568.97;;;17.81;56.33
38227;BME280;24026;49.446;8.576;2023-05-14T00:51:26;100564.47;;;17.76;56.45
38227;BME280;24026;49.446;8.576;2023-05-14T00:53:47;100567.38;;;17.80;56.26
38227;BME280;24026;49.446;8.576;2023-05-14T00:56:08;100566.34;;;17.75;56.75
38227;BME280;24026;49.446;8.576;2023-05-14T00:58:28;100565.00;;;17.78;56.51
38227;BME280;24026;49.446;8.576;2023-05-14T01:00:48;100555.88;;;17.74;56.37
38227;BME280;24026;49.446;8.576;2023-05-14T01:03:09;100558.84;;;17.72;56.54
38227;BME280;24026;49.446;8.576;2023-05-14T01:05:50;100561.59;;;17.67;56.42
38227;BME280;24026;49.446;8.576;2023-05-14T01:08:20;100562.88;;;17.75;56.47
38227;BME280;24026;49.446;8.576;2023-05-14T01:10:50;100563.47;;;17.67;56.58
38227;BME280;24026;49.446;8.576;2023-05-14T01:15:43;100555.66;;;17.70;56.16
38227;BME280;24026;49.446;8.576;2023-05-14T01:18:10;100551.94;;;17.66;56.45
38227;BME280;24026;49.446;8.576;2023-05-14T01:20:32;100559.78;;;17.63;56.83
38227;BME280;24026;49.446;8.576;2023-05-14T01:22:53;100545.47;;;17.67;56.37
38227;BME280;24026;49.446;8.576;2023-05-14T01:25:13;100540.69;;;17.64;56.43
38227;BME280;24026;49.446;8.576;2023-05-14T01:30:20;100540.72;;;17.59;56.61
38227;BME280;24026;49.446;8.576;2023-05-14T01:32:43;100543.13;;;17.60;56.43
38227;BME280;24026;49.446;8.576;2023-05-14T01:35:07;100541.25;;;17.61;56.41
38227;BME280;24026;49.446;8.576;2023-05-14T01:37:28;100539.34;;;17.62;56.53
38227;BME280;24026;49.446;8.576;2023-05-14T01:39:50;100538.03;;;17.59;56.35
38227;BME280;24026;49.446;8.576;2023-05-14T01:42:11;100535.66;;;17.57;56.66
38227;BME280;24026;49.446;8.576;2023-05-14T01:44:32;100541.81;;;17.58;56.41
38227;BME280;24026;49.446;8.576;2023-05-14T01:46:53;100552.34;;;17.54;56.52
38227;BME280;24026;49.446;8.576;2023-05-14T01:49:13;100545.56;;;17.57;56.61
38227;BME280;24026;49.446;8.576;2023-05-14T01:51:35;100550.44;;;17.55;56.40
38227;BME280;24026;49.446;8.576;2023-05-14T01:53:55;100550.72;;;17.53;56.63
38227;BME280;24026;49.446;8.576;2023-05-14T01:56:17;100552.06;;;17.56;56.54
38227;BME280;24026;49.446;8.576;2023-05-14T01:58:37;100553.91;;;17.55;56.44
38227;BME280;24026;49.446;8.576;2023-05-14T02:00:58;100550.44;;;17.55;56.40
38227;BME280;24026;49.446;8.576;2023-05-14T02:03:18;100556.59;;;17.55;56.30
38227;BME280;24026;49.446;8.576;2023-05-14T02:05:38;100553.13;;;17.55;56.23
38227;BME280;24026;49.446;8.576;2023-05-14T02:07:59;100548.53;;;17.55;56.11
38227;BME280;24026;49.446;8.576;2023-05-14T02:10:19;100551.78;;;17.57;56.24
38227;BME280;24026;49.446;8.576;2023-05-14T02:12:39;100546.72;;;17.51;56.41
38227;BME280;24026;49.446;8.576;2023-05-14T02:15:01;100540.25;;;17.52;56.52
38227;BME280;24026;49.446;8.576;2023-05-14T02:17:21;100541.63;;;17.49;56.25
38227;BME280;24026;49.446;8.576;2023-05-14T02:19:43;100543.72;;;17.52;56.19
38227;BME280;24026;49.446;8.576;2023-05-14T02:22:03;100544.03;;;17.51;56.36
38227;BME280;24026;49.446;8.576;2023-05-14T02:24:23;100543.50;;;17.49;56.27
38227;BME280;24026;49.446;8.576;2023-05-14T02:26:44;100538.13;;;17.49;56.37
38227;BME280;24026;49.446;8.576;2023-05-14T02:29:04;100547.28;;;17.48;56.36
38227;BME280;24026;49.446;8.576;2023-05-14T02:31:25;100544.06;;;17.46;56.46
38227;BME280;24026;49.446;8.576;2023-05-14T02:33:45;100541.91;;;17.48;56.48
38227;BME280;24026;49.446;8.576;2023-05-14T02:36:06;100543.22;;;17.50;56.15
38227;BME280;24026;49.446;8.576;2023-05-14T02:38:26;100540.03;;;17.48;55.97
38227;BME280;24026;49.446;8.576;2023-05-14T02:40:47;100542.72;;;17.48;56.20
38227;BME280;24026;49.446;8.576;2023-05-14T02:43:07;100543.03;;;17.41;56.07
38227;BME280;24026;49.446;8.576;2023-05-14T02:45:27;100541.44;;;17.40;56.22
38227;BME280;24026;49.446;8.576;2023-05-14T02:47:48;100539.56;;;17.41;56.20
38227;BME280;24026;49.446;8.576;2023-05-14T02:50:08;100539.28;;;17.43;56.06
38227;BME280;24026;49.446;8.576;2023-05-14T02:52:30;100540.91;;;17.38;56.37
38227;BME280;24026;49.446;8.576;2023-05-14T02:54:50;100534.47;;;17.39;56.47
38227;BME280;24026;49.446;8.576;2023-05-14T02:57:11;100530.16;;;17.38;56.27
38227;BME280;24026;49.446;8.576;2023-05-14T02:59:31;100536.59;;;17.43;56.03
38227;BME280;24026;49.446;8.576;2023-05-14T03:01:51;100534.75;;;17.38;56.07
38227;BME280;24026;49.446;8.576;2023-05-14T03:04:12;100537.16;;;17.39;56.34
38227;BME280;24026;49.446;8.576;2023-05-14T03:06:32;100542.31;;;17.36;56.14
38227;BME280;24026;49.446;8.576;2023-05-14T03:08:52;100539.34;;;17.37;56.42
38227;BME280;24026;49.446;8.576;2023-05-14T03:11:13;100531.28;;;17.32;56.17
38227;BME280;24026;49.446;8.576;2023-05-14T03:13:33;100530.78;;;17.30;56.31
38227;BME280;24026;49.446;8.576;2023-05-14T03:15:54;100534.28;;;17.31;56.38
38227;BME280;24026;49.446;8.576;2023-05-14T03:18:14;100537.78;;;17.31;56.16
38227;BME280;24026;49.446;8.576;2023-05-14T03:20:35;100529.19;;;17.29;56.23
38227;BME280;24026;49.446;8.576;2023-05-14T03:22:55;100530.28;;;17.28;56.12
38227;BME280;24026;49.446;8.576;2023-05-14T03:25:16;100526.78;;;17.28;56.19
38227;BME280;24026;49.446;8.576;2023-05-14T03:27:36;100529.47;;;17.28;56.16
38227;BME280;24026;49.446;8.576;2023-05-14T03:29:57;100531.59;;;17.31;56.26
38227;BME280;24026;49.446;8.576;2023-05-14T03:32:17;100532.13;;;17.33;56.20
38227;BME280;24026;49.446;8.576;2023-05-14T03:34:38;100531.06;;;17.29;56.37
38227;BME280;24026;49.446;8.576;2023-05-14T03:36:58;100526.78;;;17.28;56.15
38227;BME280;24026;49.446;8.576;2023-05-14T03:39:18;100530.88;;;17.20;56.56
38227;BME280;24026;49.446;8.576;2023-05-14T03:41:39;100530.09;;;17.19;56.57
38227;BME280;24026;49.446;8.576;2023-05-14T03:43:59;100533.25;;;17.27;56.10
38227;BME280;24026;49.446;8.576;2023-05-14T03:46:20;100533.81;;;17.23;56.43
38227;BME280;24026;49.446;8.576;2023-05-14T03:48:40;100538.66;;;17.21;56.25
38227;BME280;24026;49.446;8.576;2023-05-14T03:51:01;100532.72;;;17.25;56.38
38227;BME280;24026;49.446;8.576;2023-05-14T03:53:22;100533.06;;;17.18;56.25
38227;BME280;24026;49.446;8.576;2023-05-14T03:55:42;100531.94;;;17.19;56.63
38227;BME280;24026;49.446;8.576;2023-05-14T03:58:02;100532.25;;;17.17;56.39
38227;BME280;24026;49.446;8.576;2023-05-14T04:00:26;100535.22;;;17.16;56.39
38227;BME280;24026;49.446;8.576;2023-05-14T04:02:46;100532.53;;;17.16;56.24
38227;BME280;24026;49.446;8.576;2023-05-14T04:05:07;100533.91;;;17.13;56.53
38227;BME280;24026;49.446;8.576;2023-05-14T04:07:27;100533.91;;;17.13;56.46
38227;BME280;24026;49.446;8.576;2023-05-14T04:09:48;100527.16;;;17.16;56.57
38227;BME280;24026;49.446;8.576;2023-05-14T04:12:08;100527.44;;;17.14;56.56
38227;BME280;24026;49.446;8.576;2023-05-14T04:14:29;100525.78;;;17.18;56.11
38227;BME280;24026;49.446;8.576;2023-05-14T04:16:49;100530.66;;;17.16;56.27
38227;BME280;24026;49.446;8.576;2023-05-14T04:19:09;100534.41;;;17.15;56.40
38227;BME280;24026;49.446;8.576;2023-05-14T04:21:30;100534.69;;;17.14;56.48
38227;BME280;24026;49.446;8.576;2023-05-14T04:23:51;100531.47;;;17.12;56.39
38227;BME280;24026;49.446;8.576;2023-05-14T04:26:11;100537.09;;;17.15;56.17
38227;BME280;24026;49.446;8.576;2023-05-14T04:28:31;100531.75;;;17.10;56.53
38227;BME280;24026;49.446;8.576;2023-05-14T04:30:52;100539.31;;;17.08;56.51
38227;BME280;24026;49.446;8.576;2023-05-14T04:33:12;100530.22;;;17.04;56.36
38227;BME280;24026;49.446;8.576;2023-05-14T04:35:33;100540.34;;;17.12;56.18
38227;BME280;24026;49.446;8.576;2023-05-14T04:37:53;100536.84;;;17.12;56.42
38227;BME280;24026;49.446;8.576;2023-05-14T04:40:13;100538.44;;;17.18;56.22
38227;BME280;24026;49.446;8.576;2023-05-14T04:42:36;100537.63;;;17.17;56.07
38227;BME280;24026;49.446;8.576;2023-05-14T04:44:56;100537.38;;;17.14;56.23
38227;BME280;24026;49.446;8.576;2023-05-14T04:47:17;100540.34;;;17.12;56.20
38227;BME280;24026;49.446;8.576;2023-05-14T04:49:38;100533.16;;;17.08;56.19
38227;BME280;24026;49.446;8.576;2023-05-14T04:52:00;100540.91;;;17.09;56.32
38227;BME280;24026;49.446;8.576;2023-05-14T04:54:20;100538.47;;;17.13;55.95
38227;BME280;24026;49.446;8.576;2023-05-14T04:56:41;100538.97;;;17.15;55.83
38227;BME280;24026;49.446;8.576;2023-05-14T04:59:01;100546.81;;;17.11;56.01
38227;BME280;24026;49.446;8.576;2023-05-14T05:01:22;100544.13;;;17.11;56.06
38227;BME280;24026;49.446;8.576;2023-05-14T05:03:42;100545.97;;;17.16;55.91
38227;BME280;24026;49.446;8.576;2023-05-14T05:06:03;100546.75;;;17.16;55.90
38227;BME280;24026;49.446;8.576;2023-05-14T05:08:23;100541.91;;;17.18;55.94
38227;BME280;24026;49.446;8.576;2023-05-14T05:10:43;100541.09;;;17.18;55.68
38227;BME280;24026;49.446;8.576;2023-05-14T05:13:04;100540.59;;;17.16;55.65
38227;BME280;24026;49.446;8.576;2023-05-14T05:15:24;100549.97;;;17.18;55.53
38227;BME280;24026;49.446;8.576;2023-05-14T05:17:45;100549.13;;;17.23;55.65
38227;BME280;24026;49.446;8.576;2023-05-14T05:20:05;100552.59;;;17.23;55.60
38227;BME280;24026;49.446;8.576;2023-05-14T05:22:28;100556.91;;;17.25;55.69
38227;BME280;24026;49.446;8.576;2023-05-14T05:24:49;100549.13;;;17.23;55.44
38227;BME280;24026;49.446;8.576;2023-05-14T05:27:09;100551.53;;;17.25;55.29
38227;BME280;24026;49.446;8.576;2023-05-14T05:29:29;100557.69;;;17.25;55.57
38227;BME280;24026;49.446;8.576;2023-05-14T05:31:50;100549.91;;;17.23;55.52
38227;BME280;24026;49.446;8.576;2023-05-14T05:34:11;100551.53;;;17.25;55.53
38227;BME280;24026;49.446;8.576;2023-05-14T05:36:31;100559.88;;;17.23;55.38
38227;BME280;24026;49.446;8.576;2023-05-14T05:38:52;100557.72;;;17.20;55.62
38227;BME280;24026;49.446;8.576;2023-05-14T05:41:12;100552.88;;;17.22;55.63
38227;BME280;24026;49.446;8.576;2023-05-14T05:43:33;100557.41;;;17.27;55.42
38227;BME280;24026;49.446;8.576;2023-05-14T05:45:53;100558.47;;;17.26;55.58
38227;BME280;24026;49.446;8.576;2023-05-14T05:48:14;100559.59;;;17.25;55.59
38227;BME280;24026;49.446;8.576;2023-05-14T05:50:34;100567.88;;;17.28;55.53
38227;BME280;24026;49.446;8.576;2023-05-14T05:52:54;100563.28;;;17.29;55.58
38227;BME280;24026;49.446;8.576;2023-05-14T05:55:15;100556.56;;;17.31;55.21
38227;BME280;24026;49.446;8.576;2023-05-14T05:57:35;100559.25;;;17.31;55.45
38227;BME280;24026;49.446;8.576;2023-05-14T05:59:56;100553.59;;;17.33;55.18
38227;BME280;24026;49.446;8.576;2023-05-14T06:02:18;100560.06;;;17.32;55.17
38227;BME280;24026;49.446;8.576;2023-05-14T06:04:38;100551.44;;;17.35;55.30
38227;BME280;24026;49.446;8.576;2023-05-14T06:06:58;100555.44;;;17.37;55.29
38227;BME280;24026;49.446;8.576;2023-05-14T06:09:19;100554.13;;;17.35;55.41
38227;BME280;24026;49.446;8.576;2023-05-14T06:11:39;100551.66;;;17.38;55.15
38227;BME280;24026;49.446;8.576;2023-05-14T06:14:00;100552.75;;;17.37;55.30
38227;BME280;24026;49.446;8.576;2023-05-14T06:16:20;100545.78;;;17.36;55.18
38227;BME280;24026;49.446;8.576;2023-05-14T06:18:41;100548.69;;;17.40;54.96
38227;BME280;24026;49.446;8.576;2023-05-14T06:21:01;100552.44;;;17.44;55.14
38227;BME280;24026;49.446;8.576;2023-05-14T06:23:22;100550.03;;;17.43;54.74
38227;BME280;24026;49.446;8.576;2023-05-14T06:25:42;100548.94;;;17.44;54.79
38227;BME280;24026;49.446;8.576;2023-05-14T06:28:02;100548.94;;;17.44;55.09
38227;BME280;24026;49.446;8.576;2023-05-14T06:30:23;100546.47;;;17.47;55.00
38227;BME280;24026;49.446;8.576;2023-05-14T06:32:43;100543.50;;;17.49;54.53
38227;BME280;24026;49.446;8.576;2023-05-14T06:35:04;100549.69;;;17.49;54.63
38227;BME280;24026;49.446;8.576;2023-05-14T06:37:25;100549.69;;;17.49;54.79
38227;BME280;24026;49.446;8.576;2023-05-14T06:39:45;100546.19;;;17.49;54.72
38227;BME280;24026;49.446;8.576;2023-05-14T06:42:09;100542.38;;;17.55;54.55
38227;BME280;24026;49.446;8.576;2023-05-14T06:44:29;100545.34;;;17.53;54.66
38227;BME280;24026;49.446;8.576;2023-05-14T06:46:50;100544.22;;;17.59;54.44
38227;BME280;24026;49.446;8.576;2023-05-14T06:49:11;100538.28;;;17.63;54.61
38227;BME280;24026;49.446;8.576;2023-05-14T06:51:31;100543.59;;;17.68;54.09
38227;BME280;24026;49.446;8.576;2023-05-14T06:53:51;100543.53;;;17.73;54.27
38227;BME280;24026;49.446;8.576;2023-05-14T06:56:13;100540.00;;;17.77;54.07
38227;BME280;24026;49.446;8.576;2023-05-14T06:58:33;100539.09;;;17.87;53.58
38227;BME280;24026;49.446;8.576;2023-05-14T07:00:54;100529.38;;;17.91;53.53
38227;BME280;24026;49.446;8.576;2023-05-14T07:03:14;100530.41;;;17.95;53.64
38227;BME280;24026;49.446;8.576;2023-05-14T07:05:35;100530.63;;;17.99;53.55
38227;BME280;24026;49.446;8.576;2023-05-14T07:07:55;100531.94;;;18.02;53.53
38227;BME280;24026;49.446;8.576;2023-05-14T07:10:16;100528.19;;;18.03;53.43
38227;BME280;24026;49.446;8.576;2023-05-14T07:12:36;100530.81;;;18.08;53.15
38227;BME280;24026;49.446;8.576;2023-05-14T07:14:56;100534.00;;;18.10;53.01
38227;BME280;24026;49.446;8.576;2023-05-14T07:17:17;100525.66;;;18.11;53.19
38227;BME280;24026;49.446;8.576;2023-05-14T07:19:37;100526.94;;;18.14;52.79
38227;BME280;24026;49.446;8.576;2023-05-14T07:21:58;100526.66;;;18.15;53.15
38227;BME280;24026;49.446;8.576;2023-05-14T07:24:18;100530.94;;;18.17;52.82
38227;BME280;24026;49.446;8.576;2023-05-14T07:26:38;100522.59;;;18.18;52.83
38227;BME280;24026;49.446;8.576;2023-05-14T07:28:59;100523.09;;;18.20;52.82
38227;BME280;24026;49.446;8.576;2023-05-14T07:31:19;100521.22;;;18.21;53.04
38227;BME280;24026;49.446;8.576;2023-05-14T07:33:40;100511.78;;;18.23;52.95
38227;BME280;24026;49.446;8.576;2023-05-14T07:36:00;100510.38;;;18.26;52.76
38227;BME280;24026;49.446;8.576;2023-05-14T07:38:20;100511.97;;;18.27;52.67
38227;BME280;24026;49.446;8.576;2023-05-14T07:40:41;100499.88;;;18.29;52.88
38227;BME280;24026;49.446;8.576;2023-05-14T07:43:02;100501.44;;;18.30;52.47
38227;BME280;24026;49.446;8.576;2023-05-14T07:45:22;100496.56;;;18.32;52.38
38227;BME280;24026;49.446;8.576;2023-05-14T07:47:43;100493.59;;;18.34;52.66
38227;BME280;24026;49.446;8.576;2023-05-14T07:50:03;100493.84;;;18.38;52.71
38227;BME280;24026;49.446;8.576;2023-05-14T07:52:24;100491.63;;;18.40;52.84
38227;BME280;24026;49.446;8.576;2023-05-14T07:54:44;100488.66;;;18.41;52.65
38227;BME280;24026;49.446;8.576;2023-05-14T07:57:05;100481.88;;;18.44;52.42
38227;BME280;24026;49.446;8.576;2023-05-14T07:59:25;100480.50;;;18.46;52.43
38227;BME280;24026;49.446;8.576;2023-05-14T08:01:45;100481.81;;;18.49;51.59
38227;BME280;24026;49.446;8.576;2023-05-14T08:04:06;100482.34;;;18.51;52.37
38227;BME280;24026;49.446;8.576;2023-05-14T08:06:27;100485.53;;;18.53;52.00
38227;BME280;24026;49.446;8.576;2023-05-14T08:08:48;100474.19;;;18.56;52.26
38227;BME280;24026;49.446;8.576;2023-05-14T08:11:09;100475.75;;;18.57;52.02
38227;BME280;24026;49.446;8.576;2023-05-14T08:13:30;100478.16;;;18.59;52.04
38227;BME280;24026;49.446;8.576;2023-05-14T08:15:50;100480.28;;;18.62;51.91
38227;BME280;24026;49.446;8.576;2023-05-14T08:18:11;100476.50;;;18.63;52.26
38227;BME280;24026;49.446;8.576;2023-05-14T08:20:31;100467.03;;;18.65;52.12
38227;BME280;24026;49.446;8.576;2023-05-14T08:22:51;100471.81;;;18.68;52.01
38227;BME280;24026;49.446;8.576;2023-05-14T08:25:12;100470.44;;;18.71;51.96
38227;BME280;24026;49.446;8.576;2023-05-14T08:27:32;100467.16;;;18.74;51.64
38227;BME280;24026;49.446;8.576;2023-05-14T08:29:53;100465.78;;;18.77;51.41
38227;BME280;24026;49.446;8.576;2023-05-14T08:32:13;100466.28;;;18.79;51.66
38227;BME280;24026;49.446;8.576;2023-05-14T08:34:33;100460.59;;;18.80;51.79
38227;BME280;24026;49.446;8.576;2023-05-14T08:36:54;100456.56;;;18.83;51.52
38227;BME280;24026;49.446;8.576;2023-05-14T08:39:14;100459.75;;;18.85;51.22
38227;BME280;24026;49.446;8.576;2023-05-14T08:41:35;100463.72;;;18.87;51.66
38227;BME280;24026;49.446;8.576;2023-05-14T08:44:12;100458.88;;;18.90;51.44
38227;BME280;24026;49.446;8.576;2023-05-14T08:46:32;100462.84;;;18.92;51.13
38227;BME280;24026;49.446;8.576;2023-05-14T08:48:56;100459.28;;;18.97;50.88
38227;BME280;24026;49.446;8.576;2023-05-14T08:51:19;100455.19;;;18.99;50.87
38227;BME280;24026;49.446;8.576;2023-05-14T08:53:40;100454.09;;;19.00;51.01
38227;BME280;24026;49.446;8.576;2023-05-14T08:56:00;100458.88;;;19.03;50.85
38227;BME280;24026;49.446;8.576;2023-05-14T08:58:24;100462.56;;;19.07;51.18
38227;BME280;24026;49.446;8.576;2023-05-14T09:00:45;100452.63;;;19.08;51.10
38227;BME280;24026;49.446;8.576;2023-05-14T09:03:06;100454.19;;;19.09;50.70
38227;BME280;24026;49.446;8.576;2023-05-14T09:05:27;100457.41;;;19.11;51.09
38227;BME280;24026;49.446;8.576;2023-05-14T09:07:47;100459.00;;;19.12;51.00
38227;BME280;24026;49.446;8.576;2023-05-14T09:10:08;100457.09;;;19.13;50.84
38227;BME280;24026;49.446;8.576;2023-05-14T09:12:29;100462.19;;;19.14;50.90
38227;BME280;24026;49.446;8.576;2023-05-14T09:14:50;100464.59;;;19.16;50.81
38227;BME280;24026;49.446;8.576;2023-05-14T09:17:10;100458.91;;;19.17;50.66
38227;BME280;24026;49.446;8.576;2023-05-14T09:19:31;100456.72;;;19.19;50.71
38227;BME280;24026;49.446;8.576;2023-05-14T09:21:56;100453.22;;;19.19;50.60
38227;BME280;24026;49.446;8.576;2023-05-14T09:24:21;100451.03;;;19.21;50.93
38227;BME280;24026;49.446;8.576;2023-05-14T09:26:43;100452.94;;;19.20;50.51
38227;BME280;24026;49.446;8.576;2023-05-14T09:29:03;100449.63;;;19.23;50.61
38227;BME280;24026;49.446;8.576;2023-05-14T09:31:24;100442.34;;;19.24;50.53
38227;BME280;24026;49.446;8.576;2023-05-14T09:33:51;100446.66;;;19.25;50.56
38227;BME280;24026;49.446;8.576;2023-05-14T09:36:12;100445.25;;;19.28;50.25
38227;BME280;24026;49.446;8.576;2023-05-14T09:38:32;100440.69;;;19.28;50.36
38227;BME280;24026;49.446;8.576;2023-05-14T09:40:53;100437.69;;;19.30;50.55
38227;BME280;24026;49.446;8.576;2023-05-14T09:43:13;100445.47;;;19.31;50.66
38227;BME280;24026;49.446;8.576;2023-05-14T09:45:34;100441.66;;;19.32;50.49
38227;BME280;24026;49.446;8.576;2023-05-14T09:47:54;100440.09;;;19.31;50.28
38227;BME280;24026;49.446;8.576;2023-05-14T09:50:15;100445.97;;;19.33;50.30
38227;BME280;24026;49.446;8.576;2023-05-14T09:52:36;100435.47;;;19.32;50.20
38227;BME280;24026;49.446;8.576;2023-05-14T09:54:57;100437.88;;;19.33;50.12
38227;BME280;24026;49.446;8.576;2023-05-14T09:57:19;100437.59;;;19.35;50.41
38227;BME280;24026;49.446;8.576;2023-05-14T09:59:40;100434.59;;;19.36;50.47
38227;BME280;24026;49.446;8.576;2023-05-14T10:02:01;100434.28;;;19.38;50.14
38227;BME280;24026;49.446;8.576;2023-05-14T10:04:23;100432.88;;;19.40;50.32
38227;BME280;24026;49.446;8.576;2023-05-14T10:06:45;100435.28;;;19.42;50.17
38227;BME280;24026;49.446;8.576;2023-05-14T10:09:11;100440.19;;;19.40;50.16
38227;BME280;24026;49.446;8.576;2023-05-14T10:11:33;100436.66;;;19.39;50.08
38227;BME280;24026;49.446;8.576;2023-05-14T10:14:07;100436.47;;;19.36;50.11
38227;BME280;24026;49.446;8.576;2023-05-14T10:16:31;100437.47;;;19.40;49.96
38227;BME280;24026;49.446;8.576;2023-05-14T10:18:55;100439.06;;;19.41;50.17
38227;BME280;24026;49.446;8.576;2023-05-14T10:21:21;100439.88;;;19.41;49.76
38227;BME280;24026;49.446;8.576;2023-05-14T10:23:42;100437.69;;;19.43;50.16
38227;BME280;24026;49.446;8.576;2023-05-14T10:26:04;100439.28;;;19.44;49.91
38227;BME280;24026;49.446;8.576;2023-05-14T10:28:25;100436.59;;;19.44;49.86
38227;BME280;24026;49.446;8.576;2023-05-14T10:30:45;100442.47;;;19.47;49.73
38227;BME280;24026;49.446;8.576;2023-05-14T10:33:13;100433.91;;;19.44;49.88
38227;BME280;24026;49.446;8.576;2023-05-14T10:35:55;100436.38;;;19.41;49.82
38227;BME280;24026;49.446;8.576;2023-05-14T10:38:15;100438.66;;;19.48;49.77
38227;BME280;24026;49.446;8.576;2023-05-14T10:40:37;100439.97;;;19.50;49.61
38227;BME280;24026;49.446;8.576;2023-05-14T10:42:58;100439.19;;;19.50;49.91
38227;BME280;24026;49.446;8.576;2023-05-14T10:45:18;100438.06;;;19.51;49.85
38227;BME280;24026;49.446;8.576;2023-05-14T10:47:41;100432.69;;;19.51;49.96
38227;BME280;24026;49.446;8.576;2023-05-14T10:50:04;100436.97;;;19.52;49.91
38227;BME280;24026;49.446;8.576;2023-05-14T10:52:25;100436.19;;;19.51;49.56
38227;BME280;24026;49.446;8.576;2023-05-14T10:54:57;100433.78;;;19.50;49.86
38227;BME280;24026;49.446;8.576;2023-05-14T10:57:18;100427.47;;;19.54;49.55
38227;BME280;24026;49.446;8.576;2023-05-14T10:59:41;100422.91;;;19.55;49.66
38227;BME280;24026;49.446;8.576;2023-05-14T11:02:04;100428.78;;;19.57;49.86
38227;BME280;24026;49.446;8.576;2023-05-14T11:04:26;100421.19;;;19.59;49.65
38227;BME280;24026;49.446;8.576;2023-05-14T11:06:47;100423.88;;;19.59;49.21
38227;BME280;24026;49.446;8.576;2023-05-14T11:09:08;100427.06;;;19.61;49.37
38227;BME280;24026;49.446;8.576;2023-05-14T11:11:28;100419.81;;;19.61;49.34
38227;BME280;24026;49.446;8.576;2023-05-14T11:13:49;100420.59;;;19.62;49.71
38227;BME280;24026;49.446;8.576;2023-05-14T11:16:10;100420.28;;;19.63;49.32
38227;BME280;24026;49.446;8.576;2023-05-14T11:18:33;100411.13;;;19.65;49.38
38227;BME280;24026;49.446;8.576;2023-05-14T11:21:01;100420.28;;;19.63;49.16
38227;BME280;24026;49.446;8.576;2023-05-14T11:23:22;100412.69;;;19.66;49.17
38227;BME280;24026;49.446;8.576;2023-05-14T11:25:44;100415.88;;;19.68;49.30
38227;BME280;24026;49.446;8.576;2023-05-14T11:28:04;100409.41;;;19.69;49.21
38227;BME280;24026;49.446;8.576;2023-05-14T11:30:25;100406.41;;;19.70;49.22
38227;BME280;24026;49.446;8.576;2023-05-14T11:32:47;100412.28;;;19.72;49.02
38227;BME280;24026;49.446;8.576;2023-05-14T11:35:08;100395.53;;;19.75;48.87
38227;BME280;24026;49.446;8.576;2023-05-14T11:37:28;100401.72;;;19.76;49.15
38227;BME280;24026;49.446;8.576;2023-05-14T11:39:51;100396.03;;;19.77;48.87
38227;BME280;24026;49.446;8.576;2023-05-14T11:42:13;100402.25;;;19.78;48.63
38227;BME280;24026;49.446;8.576;2023-05-14T11:44:36;100400.34;;;19.78;48.76
38227;BME280;24026;49.446;8.576;2023-05-14T11:46:57;100398.13;;;19.80;48.92
38227;BME280;24026;49.446;8.576;2023-05-14T11:49:20;100397.53;;;19.84;48.59
38227;BME280;24026;49.446;8.576;2023-05-14T11:51:41;100396.44;;;19.85;48.37
38227;BME280;24026;49.446;8.576;2023-05-14T11:54:02;100394.53;;;19.85;48.57
38227;BME280;24026;49.446;8.576;2023-05-14T11:56:23;100399.13;;;19.85;48.76
38227;BME280;24026;49.446;8.576;2023-05-14T11:58:54;100391.84;;;19.85;48.19
38227;BME280;24026;49.446;8.576;2023-05-14T12:01:14;100395.31;;;19.86;48.54
38227;BME280;24026;49.446;8.576;2023-05-14T12:03:35;100389.13;;;19.85;48.08
38227;BME280;24026;49.446;8.576;2023-05-14T12:06:00;100379.13;;;19.86;48.71
38227;BME280;24026;49.446;8.576;2023-05-14T12:08:30;100383.13;;;19.88;48.53
38227;BME280;24026;49.446;8.576;2023-05-14T12:10:52;100379.31;;;19.89;48.50
38227;BME280;24026;49.446;8.576;2023-05-14T12:13:15;100377.63;;;19.93;48.34
38227;BME280;24026;49.446;8.576;2023-05-14T12:15:37;100380.81;;;19.95;48.09
38227;BME280;24026;49.446;8.576;2023-05-14T12:17:57;100365.41;;;19.96;48.22
38227;BME280;24026;49.446;8.576;2023-05-14T12:20:17;100373.69;;;19.99;48.18
38227;BME280;24026;49.446;8.576;2023-05-14T12:22:40;100370.09;;;20.04;48.08
38227;BME280;24026;49.446;8.576;2023-05-14T12:25:01;100358.50;;;20.04;48.01